sensor_id;sensor_type;location;lat;lon;timestamp;P1;durP1;ratioP1;P2;durP2;ratioP2
8574;SDS011;4325;42.520;27.448;2023-04-07T00:00:51;12.53;;;9.00;;
8574;SDS011;4325;42.520;27.448;2023-04-07T00:03:18;11.20;;;9.27;;
8574;SDS011;4325;42.520;27.448;2023-04-07T00:05:47;9.80;;;8.33;;
8574;SDS011;4325;42.520;27.448;2023-04-07T00:08:13;10.07;;;9.00;;
8574;SDS011;4325;42.520;27.448;2023-04-07T00:10:40;9.40;;;7.23;;
8574;SDS011;4325;42.520;27.448;2023-04-07T00:13:07;8.83;;;7.33;;
8574;SDS011;4325;42.520;27.448;2023-04-07T00:15:34;7.87;;;6.90;;
8574;SDS011;4325;42.520;27.448;2023-04-07T00:18:01;10.00;;;7.40;;
8574;SDS011;4325;42.520;27.448;2023-04-07T00:20:28;7.33;;;6.23;;
8574;SDS011;4325;42.520;27.448;2023-04-07T00:22:56;9.77;;;6.80;;
8574;SDS011;4325;42.520;27.448;2023-04-07T00:25:23;7.93;;;7.07;;
8574;SDS011;4325;42.520;27.448;2023-04-07T00:27:50;14.77;;;8.13;;
8574;SDS011;4325;42.520;27.448;2023-04-07T00:30:17;8.73;;;6.57;;
8574;SDS011;4325;42.520;27.448;2023-04-07T00:32:44;12.90;;;6.40;;
8574;SDS011;4325;42.520;27.448;2023-04-07T00:35:10;9.50;;;6.23;;
8574;SDS011;4325;42.520;27.448;2023-04-07T00:37:37;9.07;;;6.00;;
8574;SDS011;4325;42.520;27.448;2023-04-07T00:40:06;8.10;;;7.03;;
8574;SDS011;4325;42.520;27.448;2023-04-07T00:42:34;9.13;;;6.70;;
8574;SDS011;4325;42.520;27.448;2023-04-07T00:45:01;9.07;;;6.77;;
8574;SDS011;4325;42.520;27.448;2023-04-07T00:47:28;11.03;;;7.67;;
8574;SDS011;4325;42.520;27.448;2023-04-07T00:49:54;12.33;;;7.07;;
8574;SDS011;4325;42.520;27.448;2023-04-07T00:52:22;8.37;;;6.77;;
8574;SDS011;4325;42.520;27.448;2023-04-07T00:54:53;9.50;;;7.20;;
8574;SDS011;4325;42.520;27.448;2023-04-07T00:57:21;9.23;;;6.83;;
8574;SDS011;4325;42.520;27.448;2023-04-07T00:59:49;10.47;;;7.27;;
8574;SDS011;4325;42.520;27.448;2023-04-07T01:02:17;11.07;;;7.77;;
8574;SDS011;4325;42.520;27.448;2023-04-07T01:04:50;7.77;;;6.90;;
8574;SDS011;4325;42.520;27.448;2023-04-07T01:07:25;8.53;;;7.33;;
8574;SDS011;4325;42.520;27.448;2023-04-07T01:09:57;9.93;;;7.27;;
8574;SDS011;4325;42.520;27.448;2023-04-07T01:12:31;10.30;;;7.20;;
8574;SDS011;4325;42.520;27.448;2023-04-07T01:15:06;10.57;;;7.53;;
8574;SDS011;4325;42.520;27.448;2023-04-07T01:17:36;13.53;;;7.07;;
8574;SDS011;4325;42.520;27.448;2023-04-07T01:20:06;8.67;;;6.77;;
8574;SDS011;4325;42.520;27.448;2023-04-07T01:22:38;10.00;;;7.37;;
8574;SDS011;4325;42.520;27.448;2023-04-07T01:25:17;7.80;;;6.50;;
8574;SDS011;4325;42.520;27.448;2023-04-07T01:27:57;7.97;;;6.40;;
8574;SDS011;4325;42.520;27.448;2023-04-07T01:30:40;8.83;;;7.00;;
8574;SDS011;4325;42.520;27.448;2023-04-07T01:33:10;9.10;;;6.77;;
8574;SDS011;4325;42.520;27.448;2023-04-07T01:35:39;9.33;;;7.13;;
8574;SDS011;4325;42.520;27.448;2023-04-07T01:38:08;7.67;;;6.60;;
8574;SDS011;4325;42.520;27.448;2023-04-07T01:40:36;9.60;;;6.83;;
8574;SDS011;4325;42.520;27.448;2023-04-07T01:43:05;7.80;;;6.50;;
8574;SDS011;4325;42.520;27.448;2023-04-07T01:45:33;7.50;;;6.40;;
8574;SDS011;4325;42.520;27.448;2023-04-07T01:48:03;8.30;;;7.23;;
8574;SDS011;4325;42.520;27.448;2023-04-07T01:50:31;6.77;;;6.10;;
8574;SDS011;4325;42.520;27.448;2023-04-07T01:52:59;12.37;;;7.50;;
8574;SDS011;4325;42.520;27.448;2023-04-07T01:55:27;7.63;;;6.00;;
8574;SDS011;4325;42.520;27.448;2023-04-07T01:57:54;9.83;;;6.30;;
8574;SDS011;4325;42.520;27.448;2023-04-07T02:00:21;16.23;;;7.00;;
8574;SDS011;4325;42.520;27.448;2023-04-07T02:02:48;9.43;;;6.77;;
8574;SDS011;4325;42.520;27.448;2023-04-07T02:05:21;9.30;;;6.10;;
8574;SDS011;4325;42.520;27.448;2023-04-07T02:07:50;6.73;;;5.83;;
8574;SDS011;4325;42.520;27.448;2023-04-07T02:10:21;8.07;;;6.57;;
8574;SDS011;4325;42.520;27.448;2023-04-07T02:12:50;9.53;;;6.83;;
8574;SDS011;4325;42.520;27.448;2023-04-07T02:15:18;9.23;;;6.67;;
8574;SDS011;4325;42.520;27.448;2023-04-07T02:17:46;9.27;;;6.37;;
8574;SDS011;4325;42.520;27.448;2023-04-07T02:20:17;8.17;;;6.10;;
8574;SDS011;4325;42.520;27.448;2023-04-07T02:22:46;7.10;;;6.00;;
8574;SDS011;4325;42.520;27.448;2023-04-07T02:25:20;8.67;;;7.03;;
8574;SDS011;4325;42.520;27.448;2023-04-07T02:27:48;7.70;;;6.67;;
8574;SDS011;4325;42.520;27.448;2023-04-07T02:30:15;9.10;;;6.93;;
8574;SDS011;4325;42.520;27.448;2023-04-07T02:32:42;6.83;;;6.13;;
8574;SDS011;4325;42.520;27.448;2023-04-07T02:35:09;8.80;;;6.60;;
8574;SDS011;4325;42.520;27.448;2023-04-07T02:37:37;8.97;;;6.50;;
8574;SDS011;4325;42.520;27.448;2023-04-07T02:40:05;9.93;;;6.73;;
8574;SDS011;4325;42.520;27.448;2023-04-07T02:42:33;7.97;;;6.63;;
8574;SDS011;4325;42.520;27.448;2023-04-07T02:45:00;8.90;;;6.43;;
8574;SDS011;4325;42.520;27.448;2023-04-07T02:47:27;7.53;;;6.70;;
8574;SDS011;4325;42.520;27.448;2023-04-07T02:49:54;10.57;;;6.83;;
8574;SDS011;4325;42.520;27.448;2023-04-07T02:52:21;8.60;;;7.30;;
8574;SDS011;4325;42.520;27.448;2023-04-07T02:54:48;9.07;;;7.43;;
8574;SDS011;4325;42.520;27.448;2023-04-07T02:57:17;11.93;;;7.63;;
8574;SDS011;4325;42.520;27.448;2023-04-07T02:59:43;9.27;;;6.93;;
8574;SDS011;4325;42.520;27.448;2023-04-07T03:02:10;13.00;;;8.23;;
8574;SDS011;4325;42.520;27.448;2023-04-07T03:04:37;13.10;;;8.40;;
8574;SDS011;4325;42.520;27.448;2023-04-07T03:07:04;9.93;;;8.43;;
8574;SDS011;4325;42.520;27.448;2023-04-07T03:09:31;10.87;;;7.87;;
8574;SDS011;4325;42.520;27.448;2023-04-07T03:11:58;10.50;;;7.50;;
8574;SDS011;4325;42.520;27.448;2023-04-07T03:14:27;12.67;;;8.30;;
8574;SDS011;4325;42.520;27.448;2023-04-07T03:16:54;13.87;;;8.80;;
8574;SDS011;4325;42.520;27.448;2023-04-07T03:19:21;14.57;;;8.10;;
8574;SDS011;4325;42.520;27.448;2023-04-07T03:21:49;10.80;;;8.00;;
8574;SDS011;4325;42.520;27.448;2023-04-07T03:24:16;12.00;;;7.80;;
8574;SDS011;4325;42.520;27.448;2023-04-07T03:26:42;14.73;;;8.97;;
8574;SDS011;4325;42.520;27.448;2023-04-07T03:29:09;18.73;;;8.77;;
8574;SDS011;4325;42.520;27.448;2023-04-07T03:31:38;11.73;;;8.53;;
8574;SDS011;4325;42.520;27.448;2023-04-07T03:34:05;12.97;;;8.20;;
8574;SDS011;4325;42.520;27.448;2023-04-07T03:36:31;13.57;;;8.97;;
8574;SDS011;4325;42.520;27.448;2023-04-07T03:38:58;12.47;;;8.27;;
8574;SDS011;4325;42.520;27.448;2023-04-07T03:41:25;15.40;;;8.60;;
8574;SDS011;4325;42.520;27.448;2023-04-07T03:43:52;11.23;;;7.77;;
8574;SDS011;4325;42.520;27.448;2023-04-07T03:46:19;10.33;;;8.40;;
8574;SDS011;4325;42.520;27.448;2023-04-07T03:48:47;13.30;;;8.27;;
8574;SDS011;4325;42.520;27.448;2023-04-07T03:51:14;13.77;;;9.03;;
8574;SDS011;4325;42.520;27.448;2023-04-07T03:53:41;11.73;;;9.30;;
8574;SDS011;4325;42.520;27.448;2023-04-07T03:56:08;14.57;;;9.50;;
8574;SDS011;4325;42.520;27.448;2023-04-07T03:58:35;11.30;;;8.77;;
8574;SDS011;4325;42.520;27.448;2023-04-07T04:01:02;15.87;;;8.67;;
8574;SDS011;4325;42.520;27.448;2023-04-07T04:03:29;12.80;;;8.47;;
8574;SDS011;4325;42.520;27.448;2023-04-07T04:05:58;13.70;;;9.40;;
8574;SDS011;4325;42.520;27.448;2023-04-07T04:08:25;16.67;;;9.80;;
8574;SDS011;4325;42.520;27.448;2023-04-07T04:10:52;13.80;;;9.27;;
8574;SDS011;4325;42.520;27.448;2023-04-07T04:13:19;15.70;;;9.07;;
8574;SDS011;4325;42.520;27.448;2023-04-07T04:15:46;14.53;;;8.10;;
8574;SDS011;4325;42.520;27.448;2023-04-07T04:18:13;13.53;;;8.30;;
8574;SDS011;4325;42.520;27.448;2023-04-07T04:20:40;11.37;;;8.37;;
8574;SDS011;4325;42.520;27.448;2023-04-07T04:23:08;12.23;;;7.77;;
8574;SDS011;4325;42.520;27.448;2023-04-07T04:25:35;14.03;;;7.73;;
8574;SDS011;4325;42.520;27.448;2023-04-07T04:28:03;11.70;;;8.03;;
8574;SDS011;4325;42.520;27.448;2023-04-07T04:30:30;10.87;;;8.33;;
8574;SDS011;4325;42.520;27.448;2023-04-07T04:32:57;13.20;;;9.03;;
8574;SDS011;4325;42.520;27.448;2023-04-07T04:35:24;13.13;;;8.93;;
8574;SDS011;4325;42.520;27.448;2023-04-07T04:37:51;12.20;;;9.23;;
8574;SDS011;4325;42.520;27.448;2023-04-07T04:40:19;16.33;;;9.30;;
8574;SDS011;4325;42.520;27.448;2023-04-07T04:42:46;9.77;;;8.53;;
8574;SDS011;4325;42.520;27.448;2023-04-07T04:45:13;18.37;;;11.73;;
8574;SDS011;4325;42.520;27.448;2023-04-07T04:47:40;13.60;;;9.00;;
8574;SDS011;4325;42.520;27.448;2023-04-07T04:50:08;11.63;;;7.80;;
8574;SDS011;4325;42.520;27.448;2023-04-07T04:52:36;13.70;;;8.10;;
8574;SDS011;4325;42.520;27.448;2023-04-07T04:55:03;14.37;;;8.23;;
8574;SDS011;4325;42.520;27.448;2023-04-07T04:57:32;15.53;;;9.33;;
8574;SDS011;4325;42.520;27.448;2023-04-07T05:00:00;14.73;;;9.77;;
8574;SDS011;4325;42.520;27.448;2023-04-07T05:02:28;13.73;;;10.37;;
8574;SDS011;4325;42.520;27.448;2023-04-07T05:04:55;16.60;;;10.23;;
8574;SDS011;4325;42.520;27.448;2023-04-07T05:07:22;20.37;;;10.33;;
8574;SDS011;4325;42.520;27.448;2023-04-07T05:09:48;12.10;;;9.93;;
8574;SDS011;4325;42.520;27.448;2023-04-07T05:12:15;15.27;;;11.13;;
8574;SDS011;4325;42.520;27.448;2023-04-07T05:14:43;18.40;;;10.03;;
8574;SDS011;4325;42.520;27.448;2023-04-07T05:17:10;16.13;;;9.80;;
8574;SDS011;4325;42.520;27.448;2023-04-07T05:19:37;23.07;;;10.30;;
8574;SDS011;4325;42.520;27.448;2023-04-07T05:22:04;17.60;;;10.47;;
8574;SDS011;4325;42.520;27.448;2023-04-07T05:24:31;16.30;;;9.70;;
8574;SDS011;4325;42.520;27.448;2023-04-07T05:26:58;19.60;;;10.27;;
8574;SDS011;4325;42.520;27.448;2023-04-07T05:29:25;17.73;;;10.17;;
8574;SDS011;4325;42.520;27.448;2023-04-07T05:31:54;14.07;;;10.00;;
8574;SDS011;4325;42.520;27.448;2023-04-07T05:34:21;16.93;;;10.33;;
8574;SDS011;4325;42.520;27.448;2023-04-07T05:36:47;21.57;;;10.40;;
8574;SDS011;4325;42.520;27.448;2023-04-07T05:39:15;16.20;;;10.43;;
8574;SDS011;4325;42.520;27.448;2023-04-07T05:41:42;13.90;;;9.47;;
8574;SDS011;4325;42.520;27.448;2023-04-07T05:44:08;13.70;;;9.70;;
8574;SDS011;4325;42.520;27.448;2023-04-07T05:46:35;16.13;;;10.30;;
8574;SDS011;4325;42.520;27.448;2023-04-07T05:49:04;14.27;;;10.07;;
8574;SDS011;4325;42.520;27.448;2023-04-07T05:51:31;15.57;;;9.60;;
8574;SDS011;4325;42.520;27.448;2023-04-07T05:54:00;16.33;;;10.27;;
8574;SDS011;4325;42.520;27.448;2023-04-07T05:56:27;17.87;;;9.37;;
8574;SDS011;4325;42.520;27.448;2023-04-07T05:58:55;15.63;;;10.33;;
8574;SDS011;4325;42.520;27.448;2023-04-07T06:01:23;17.80;;;9.37;;
8574;SDS011;4325;42.520;27.448;2023-04-07T06:03:50;18.43;;;9.77;;
8574;SDS011;4325;42.520;27.448;2023-04-07T06:06:18;13.13;;;9.30;;
8574;SDS011;4325;42.520;27.448;2023-04-07T06:08:45;14.03;;;8.90;;
8574;SDS011;4325;42.520;27.448;2023-04-07T06:11:12;12.60;;;8.77;;
8574;SDS011;4325;42.520;27.448;2023-04-07T06:13:39;18.07;;;9.27;;
8574;SDS011;4325;42.520;27.448;2023-04-07T06:16:06;19.83;;;10.47;;
8574;SDS011;4325;42.520;27.448;2023-04-07T06:18:33;13.97;;;9.87;;
8574;SDS011;4325;42.520;27.448;2023-04-07T06:21:00;15.23;;;10.07;;
8574;SDS011;4325;42.520;27.448;2023-04-07T06:23:29;10.60;;;8.43;;
8574;SDS011;4325;42.520;27.448;2023-04-07T06:25:55;14.63;;;9.63;;
8574;SDS011;4325;42.520;27.448;2023-04-07T06:28:22;17.23;;;10.30;;
8574;SDS011;4325;42.520;27.448;2023-04-07T06:30:49;12.60;;;9.27;;
8574;SDS011;4325;42.520;27.448;2023-04-07T06:33:16;15.00;;;9.90;;
8574;SDS011;4325;42.520;27.448;2023-04-07T06:35:43;15.33;;;9.80;;
8574;SDS011;4325;42.520;27.448;2023-04-07T06:38:10;17.77;;;10.43;;
8574;SDS011;4325;42.520;27.448;2023-04-07T06:40:39;13.30;;;8.73;;
8574;SDS011;4325;42.520;27.448;2023-04-07T06:43:06;10.17;;;8.03;;
8574;SDS011;4325;42.520;27.448;2023-04-07T06:45:32;13.40;;;8.60;;
8574;SDS011;4325;42.520;27.448;2023-04-07T06:47:59;13.70;;;8.67;;
8574;SDS011;4325;42.520;27.448;2023-04-07T06:50:26;11.40;;;8.93;;
8574;SDS011;4325;42.520;27.448;2023-04-07T06:52:53;9.73;;;7.77;;
8574;SDS011;4325;42.520;27.448;2023-04-07T06:55:20;13.10;;;8.40;;
8574;SDS011;4325;42.520;27.448;2023-04-07T06:57:48;11.57;;;8.47;;
8574;SDS011;4325;42.520;27.448;2023-04-07T07:00:16;12.63;;;9.30;;
8574;SDS011;4325;42.520;27.448;2023-04-07T07:02:44;15.10;;;8.73;;
8574;SDS011;4325;42.520;27.448;2023-04-07T07:05:11;12.30;;;8.43;;
8574;SDS011;4325;42.520;27.448;2023-04-07T07:07:37;13.03;;;8.50;;
8574;SDS011;4325;42.520;27.448;2023-04-07T07:10:05;10.03;;;8.13;;
8574;SDS011;4325;42.520;27.448;2023-04-07T07:12:34;13.10;;;8.33;;
8574;SDS011;4325;42.520;27.448;2023-04-07T07:15:02;11.93;;;8.13;;
8574;SDS011;4325;42.520;27.448;2023-04-07T07:17:30;9.93;;;8.40;;
8574;SDS011;4325;42.520;27.448;2023-04-07T07:19:57;18.03;;;10.67;;
8574;SDS011;4325;42.520;27.448;2023-04-07T07:22:24;14.50;;;9.57;;
8574;SDS011;4325;42.520;27.448;2023-04-07T07:24:50;10.23;;;8.27;;
8574;SDS011;4325;42.520;27.448;2023-04-07T07:27:17;13.37;;;9.43;;
8574;SDS011;4325;42.520;27.448;2023-04-07T07:29:44;11.93;;;9.80;;
8574;SDS011;4325;42.520;27.448;2023-04-07T07:32:13;17.10;;;10.60;;
8574;SDS011;4325;42.520;27.448;2023-04-07T07:34:39;12.70;;;9.17;;
8574;SDS011;4325;42.520;27.448;2023-04-07T07:37:06;11.63;;;8.80;;
8574;SDS011;4325;42.520;27.448;2023-04-07T07:39:33;9.60;;;8.43;;
8574;SDS011;4325;42.520;27.448;2023-04-07T07:42:00;14.37;;;10.67;;
8574;SDS011;4325;42.520;27.448;2023-04-07T07:44:27;17.17;;;12.57;;
8574;SDS011;4325;42.520;27.448;2023-04-07T07:46:54;13.40;;;10.03;;
8574;SDS011;4325;42.520;27.448;2023-04-07T07:49:22;18.90;;;15.67;;
8574;SDS011;4325;42.520;27.448;2023-04-07T07:51:49;18.03;;;14.50;;
8574;SDS011;4325;42.520;27.448;2023-04-07T07:54:16;17.07;;;13.87;;
8574;SDS011;4325;42.520;27.448;2023-04-07T07:56:43;17.37;;;13.03;;
8574;SDS011;4325;42.520;27.448;2023-04-07T07:59:10;20.27;;;14.43;;
8574;SDS011;4325;42.520;27.448;2023-04-07T08:01:36;17.30;;;13.27;;
8574;SDS011;4325;42.520;27.448;2023-04-07T08:04:03;20.17;;;13.73;;
8574;SDS011;4325;42.520;27.448;2023-04-07T08:06:31;17.00;;;14.03;;
8574;SDS011;4325;42.520;27.448;2023-04-07T08:08:58;22.63;;;13.47;;
8574;SDS011;4325;42.520;27.448;2023-04-07T08:11:25;13.87;;;12.20;;
8574;SDS011;4325;42.520;27.448;2023-04-07T08:13:52;19.40;;;13.03;;
8574;SDS011;4325;42.520;27.448;2023-04-07T08:16:19;19.43;;;11.13;;
8574;SDS011;4325;42.520;27.448;2023-04-07T08:18:47;17.00;;;13.03;;
8574;SDS011;4325;42.520;27.448;2023-04-07T08:21:14;17.43;;;12.40;;
8574;SDS011;4325;42.520;27.448;2023-04-07T08:23:43;12.63;;;10.77;;
8574;SDS011;4325;42.520;27.448;2023-04-07T08:26:10;15.40;;;12.13;;
8574;SDS011;4325;42.520;27.448;2023-04-07T08:28:37;11.73;;;9.97;;
8574;SDS011;4325;42.520;27.448;2023-04-07T08:31:03;11.00;;;9.73;;
8574;SDS011;4325;42.520;27.448;2023-04-07T08:33:30;13.17;;;9.23;;
8574;SDS011;4325;42.520;27.448;2023-04-07T08:35:57;12.57;;;9.50;;
8574;SDS011;4325;42.520;27.448;2023-04-07T08:38:24;13.40;;;9.73;;
8574;SDS011;4325;42.520;27.448;2023-04-07T08:40:54;15.53;;;9.53;;
8574;SDS011;4325;42.520;27.448;2023-04-07T08:43:26;15.73;;;9.30;;
8574;SDS011;4325;42.520;27.448;2023-04-07T08:45:55;12.87;;;9.73;;
8574;SDS011;4325;42.520;27.448;2023-04-07T08:48:23;12.77;;;10.20;;
8574;SDS011;4325;42.520;27.448;2023-04-07T08:50:52;12.93;;;9.20;;
8574;SDS011;4325;42.520;27.448;2023-04-07T08:53:22;11.83;;;9.10;;
8574;SDS011;4325;42.520;27.448;2023-04-07T08:55:53;12.00;;;9.23;;
8574;SDS011;4325;42.520;27.448;2023-04-07T08:58:21;11.37;;;9.70;;
8574;SDS011;4325;42.520;27.448;2023-04-07T09:00:49;15.47;;;9.53;;
8574;SDS011;4325;42.520;27.448;2023-04-07T09:03:16;13.57;;;9.53;;
8574;SDS011;4325;42.520;27.448;2023-04-07T09:05:44;13.30;;;10.43;;
8574;SDS011;4325;42.520;27.448;2023-04-07T09:08:12;12.10;;;9.90;;
8574;SDS011;4325;42.520;27.448;2023-04-07T09:10:39;10.00;;;8.90;;
8574;SDS011;4325;42.520;27.448;2023-04-07T09:13:07;14.00;;;9.53;;
8574;SDS011;4325;42.520;27.448;2023-04-07T09:15:34;12.50;;;9.77;;
8574;SDS011;4325;42.520;27.448;2023-04-07T09:18:01;12.20;;;10.00;;
8574;SDS011;4325;42.520;27.448;2023-04-07T09:23:25;11.97;;;10.43;;
8574;SDS011;4325;42.520;27.448;2023-04-07T09:25:54;15.83;;;11.13;;
8574;SDS011;4325;42.520;27.448;2023-04-07T09:28:22;12.97;;;11.53;;
8574;SDS011;4325;42.520;27.448;2023-04-07T09:30:52;16.77;;;14.57;;
8574;SDS011;4325;42.520;27.448;2023-04-07T09:33:25;14.03;;;12.43;;
8574;SDS011;4325;42.520;27.448;2023-04-07T09:35:53;12.87;;;11.43;;
8574;SDS011;4325;42.520;27.448;2023-04-07T09:38:20;12.97;;;10.13;;
8574;SDS011;4325;42.520;27.448;2023-04-07T09:40:47;14.20;;;10.87;;
8574;SDS011;4325;42.520;27.448;2023-04-07T09:43:15;12.30;;;9.03;;
8574;SDS011;4325;42.520;27.448;2023-04-07T09:45:44;13.53;;;9.53;;
8574;SDS011;4325;42.520;27.448;2023-04-07T09:48:17;10.27;;;9.13;;
8574;SDS011;4325;42.520;27.448;2023-04-07T09:50:45;11.40;;;9.10;;
8574;SDS011;4325;42.520;27.448;2023-04-07T09:53:13;11.67;;;8.73;;
8574;SDS011;4325;42.520;27.448;2023-04-07T09:55:41;13.13;;;10.00;;
8574;SDS011;4325;42.520;27.448;2023-04-07T09:58:10;9.27;;;8.37;;
8574;SDS011;4325;42.520;27.448;2023-04-07T10:00:38;12.80;;;8.70;;
8574;SDS011;4325;42.520;27.448;2023-04-07T10:03:07;9.53;;;8.57;;
8574;SDS011;4325;42.520;27.448;2023-04-07T10:05:34;13.97;;;7.87;;
8574;SDS011;4325;42.520;27.448;2023-04-07T10:08:02;7.77;;;7.07;;
8574;SDS011;4325;42.520;27.448;2023-04-07T10:10:31;8.43;;;7.60;;
8574;SDS011;4325;42.520;27.448;2023-04-07T10:12:58;10.33;;;7.90;;
8574;SDS011;4325;42.520;27.448;2023-04-07T10:15:26;7.67;;;6.97;;
8574;SDS011;4325;42.520;27.448;2023-04-07T10:17:53;11.73;;;8.17;;
8574;SDS011;4325;42.520;27.448;2023-04-07T10:20:23;8.90;;;8.00;;
8574;SDS011;4325;42.520;27.448;2023-04-07T10:22:51;9.57;;;8.57;;
8574;SDS011;4325;42.520;27.448;2023-04-07T10:25:21;9.30;;;8.37;;
8574;SDS011;4325;42.520;27.448;2023-04-07T10:27:51;10.20;;;9.10;;
8574;SDS011;4325;42.520;27.448;2023-04-07T10:30:22;12.07;;;8.50;;
8574;SDS011;4325;42.520;27.448;2023-04-07T10:32:52;9.73;;;8.80;;
8574;SDS011;4325;42.520;27.448;2023-04-07T10:35:20;10.07;;;9.07;;
8574;SDS011;4325;42.520;27.448;2023-04-07T10:40:42;14.57;;;11.03;;
8574;SDS011;4325;42.520;27.448;2023-04-07T10:43:09;13.83;;;11.07;;
8574;SDS011;4325;42.520;27.448;2023-04-07T10:45:50;12.43;;;11.07;;
8574;SDS011;4325;42.520;27.448;2023-04-07T10:48:20;12.03;;;9.67;;
8574;SDS011;4325;42.520;27.448;2023-04-07T10:57:08;12.00;;;10.60;;
8574;SDS011;4325;42.520;27.448;2023-04-07T10:59:37;14.77;;;9.43;;
8574;SDS011;4325;42.520;27.448;2023-04-07T11:04:58;17.27;;;10.80;;
8574;SDS011;4325;42.520;27.448;2023-04-07T11:07:43;11.97;;;9.27;;
8574;SDS011;4325;42.520;27.448;2023-04-07T11:10:13;12.00;;;9.17;;
8574;SDS011;4325;42.520;27.448;2023-04-07T11:12:41;9.40;;;8.40;;
8574;SDS011;4325;42.520;27.448;2023-04-07T11:15:18;12.57;;;8.47;;
8574;SDS011;4325;42.520;27.448;2023-04-07T11:20:43;13.70;;;9.30;;
8574;SDS011;4325;42.520;27.448;2023-04-07T11:23:11;20.53;;;10.53;;
8574;SDS011;4325;42.520;27.448;2023-04-07T11:25:41;14.03;;;10.37;;
8574;SDS011;4325;42.520;27.448;2023-04-07T11:28:09;15.83;;;11.37;;
8574;SDS011;4325;42.520;27.448;2023-04-07T11:30:37;12.63;;;11.33;;
8574;SDS011;4325;42.520;27.448;2023-04-07T11:33:13;12.73;;;10.67;;
8574;SDS011;4325;42.520;27.448;2023-04-07T11:35:45;14.13;;;11.40;;
8574;SDS011;4325;42.520;27.448;2023-04-07T11:38:13;17.23;;;11.03;;
8574;SDS011;4325;42.520;27.448;2023-04-07T11:40:42;12.67;;;10.10;;
8574;SDS011;4325;42.520;27.448;2023-04-07T11:43:15;11.40;;;10.27;;
8574;SDS011;4325;42.520;27.448;2023-04-07T11:45:44;12.50;;;11.10;;
8574;SDS011;4325;42.520;27.448;2023-04-07T11:48:26;13.77;;;9.10;;
8574;SDS011;4325;42.520;27.448;2023-04-07T11:50:54;11.57;;;8.40;;
8574;SDS011;4325;42.520;27.448;2023-04-07T11:53:25;9.60;;;8.70;;
8574;SDS011;4325;42.520;27.448;2023-04-07T11:56:04;8.83;;;8.03;;
8574;SDS011;4325;42.520;27.448;2023-04-07T11:58:33;8.90;;;8.00;;
8574;SDS011;4325;42.520;27.448;2023-04-07T12:01:01;9.03;;;8.20;;
8574;SDS011;4325;42.520;27.448;2023-04-07T12:03:31;10.17;;;9.23;;
8574;SDS011;4325;42.520;27.448;2023-04-07T12:05:58;10.40;;;9.30;;
8574;SDS011;4325;42.520;27.448;2023-04-07T12:08:41;9.93;;;8.93;;
8574;SDS011;4325;42.520;27.448;2023-04-07T12:13:56;11.87;;;8.20;;
8574;SDS011;4325;42.520;27.448;2023-04-07T12:16:23;9.13;;;8.33;;
8574;SDS011;4325;42.520;27.448;2023-04-07T12:18:51;10.00;;;9.00;;
8574;SDS011;4325;42.520;27.448;2023-04-07T12:21:18;9.83;;;8.93;;
8574;SDS011;4325;42.520;27.448;2023-04-07T12:23:45;12.60;;;8.23;;
8574;SDS011;4325;42.520;27.448;2023-04-07T12:26:12;9.90;;;8.90;;
8574;SDS011;4325;42.520;27.448;2023-04-07T12:28:41;10.43;;;8.70;;
8574;SDS011;4325;42.520;27.448;2023-04-07T12:31:08;9.57;;;8.57;;
8574;SDS011;4325;42.520;27.448;2023-04-07T12:33:35;12.67;;;8.63;;
8574;SDS011;4325;42.520;27.448;2023-04-07T12:36:02;8.90;;;7.70;;
8574;SDS011;4325;42.520;27.448;2023-04-07T12:38:29;11.13;;;8.20;;
8574;SDS011;4325;42.520;27.448;2023-04-07T12:40:56;13.10;;;8.60;;
8574;SDS011;4325;42.520;27.448;2023-04-07T12:43:27;8.77;;;7.73;;
8574;SDS011;4325;42.520;27.448;2023-04-07T12:45:56;8.63;;;7.83;;
8574;SDS011;4325;42.520;27.448;2023-04-07T12:48:23;10.40;;;8.13;;
8574;SDS011;4325;42.520;27.448;2023-04-07T12:50:52;9.07;;;8.17;;
8574;SDS011;4325;42.520;27.448;2023-04-07T12:53:18;8.97;;;8.07;;
8574;SDS011;4325;42.520;27.448;2023-04-07T12:55:47;9.80;;;7.37;;
8574;SDS011;4325;42.520;27.448;2023-04-07T12:58:13;8.50;;;7.70;;
8574;SDS011;4325;42.520;27.448;2023-04-07T13:00:41;9.03;;;8.17;;
8574;SDS011;4325;42.520;27.448;2023-04-07T13:03:09;8.20;;;7.30;;
8574;SDS011;4325;42.520;27.448;2023-04-07T13:05:36;12.37;;;7.87;;
8574;SDS011;4325;42.520;27.448;2023-04-07T13:08:03;8.73;;;7.40;;
8574;SDS011;4325;42.520;27.448;2023-04-07T13:10:32;9.80;;;7.93;;
8574;SDS011;4325;42.520;27.448;2023-04-07T13:12:58;8.20;;;7.40;;
8574;SDS011;4325;42.520;27.448;2023-04-07T13:15:25;9.67;;;8.17;;
8574;SDS011;4325;42.520;27.448;2023-04-07T13:17:53;9.63;;;7.67;;
8574;SDS011;4325;42.520;27.448;2023-04-07T13:20:21;9.20;;;8.20;;
8574;SDS011;4325;42.520;27.448;2023-04-07T13:22:52;11.07;;;7.97;;
8574;SDS011;4325;42.520;27.448;2023-04-07T13:25:18;16.93;;;8.60;;
8574;SDS011;4325;42.520;27.448;2023-04-07T13:27:45;10.93;;;8.87;;
8574;SDS011;4325;42.520;27.448;2023-04-07T13:30:12;9.97;;;8.50;;
8574;SDS011;4325;42.520;27.448;2023-04-07T13:32:40;11.30;;;8.03;;
8574;SDS011;4325;42.520;27.448;2023-04-07T13:35:07;11.47;;;9.17;;
8574;SDS011;4325;42.520;27.448;2023-04-07T13:37:35;11.43;;;9.00;;
8574;SDS011;4325;42.520;27.448;2023-04-07T13:40:02;11.17;;;8.97;;
8574;SDS011;4325;42.520;27.448;2023-04-07T13:42:30;14.53;;;8.97;;
8574;SDS011;4325;42.520;27.448;2023-04-07T13:44:56;12.23;;;8.70;;
8574;SDS011;4325;42.520;27.448;2023-04-07T13:47:23;11.47;;;8.70;;
8574;SDS011;4325;42.520;27.448;2023-04-07T13:49:50;12.77;;;9.37;;
8574;SDS011;4325;42.520;27.448;2023-04-07T13:52:17;11.10;;;8.40;;
8574;SDS011;4325;42.520;27.448;2023-04-07T13:54:46;15.67;;;8.07;;
8574;SDS011;4325;42.520;27.448;2023-04-07T13:57:12;9.33;;;7.93;;
8574;SDS011;4325;42.520;27.448;2023-04-07T13:59:44;9.87;;;8.60;;
8574;SDS011;4325;42.520;27.448;2023-04-07T14:02:12;12.60;;;8.13;;
8574;SDS011;4325;42.520;27.448;2023-04-07T14:04:39;9.07;;;8.03;;
8574;SDS011;4325;42.520;27.448;2023-04-07T14:07:05;11.40;;;7.13;;
8574;SDS011;4325;42.520;27.448;2023-04-07T14:09:32;8.90;;;8.00;;
8574;SDS011;4325;42.520;27.448;2023-04-07T14:12:00;11.57;;;7.13;;
8574;SDS011;4325;42.520;27.448;2023-04-07T14:14:27;8.77;;;7.87;;
8574;SDS011;4325;42.520;27.448;2023-04-07T14:16:55;8.73;;;7.57;;
8574;SDS011;4325;42.520;27.448;2023-04-07T14:19:22;10.40;;;8.00;;
8574;SDS011;4325;42.520;27.448;2023-04-07T14:21:49;11.77;;;7.70;;
8574;SDS011;4325;42.520;27.448;2023-04-07T14:24:16;10.87;;;7.83;;
8574;SDS011;4325;42.520;27.448;2023-04-07T14:26:43;9.37;;;8.00;;
8574;SDS011;4325;42.520;27.448;2023-04-07T14:29:12;12.07;;;7.37;;
8574;SDS011;4325;42.520;27.448;2023-04-07T14:31:40;11.13;;;7.60;;
8574;SDS011;4325;42.520;27.448;2023-04-07T14:34:06;10.30;;;8.53;;
8574;SDS011;4325;42.520;27.448;2023-04-07T14:36:34;9.27;;;8.17;;
8574;SDS011;4325;42.520;27.448;2023-04-07T14:39:01;15.87;;;8.13;;
8574;SDS011;4325;42.520;27.448;2023-04-07T14:41:28;11.53;;;8.70;;
8574;SDS011;4325;42.520;27.448;2023-04-07T14:43:55;9.33;;;8.07;;
8574;SDS011;4325;42.520;27.448;2023-04-07T14:46:24;10.77;;;8.77;;
8574;SDS011;4325;42.520;27.448;2023-04-07T14:48:51;13.37;;;8.77;;
8574;SDS011;4325;42.520;27.448;2023-04-07T14:51:18;13.63;;;8.50;;
8574;SDS011;4325;42.520;27.448;2023-04-07T14:53:46;16.27;;;9.30;;
8574;SDS011;4325;42.520;27.448;2023-04-07T14:56:17;12.90;;;8.90;;
8574;SDS011;4325;42.520;27.448;2023-04-07T14:58:45;11.87;;;8.60;;
8574;SDS011;4325;42.520;27.448;2023-04-07T15:01:12;13.70;;;9.43;;
8574;SDS011;4325;42.520;27.448;2023-04-07T15:03:40;10.90;;;8.70;;
8574;SDS011;4325;42.520;27.448;2023-04-07T15:06:07;10.87;;;9.17;;
8574;SDS011;4325;42.520;27.448;2023-04-07T15:08:34;12.23;;;9.13;;
8574;SDS011;4325;42.520;27.448;2023-04-07T15:11:02;12.37;;;8.33;;
8574;SDS011;4325;42.520;27.448;2023-04-07T15:13:29;12.33;;;9.27;;